createdAt,value
2019-01-04T00:01:56.716Z,2.80
2019-01-04T00:04:31.087Z,3.20
2019-01-04T00:07:03.643Z,2.77
2019-01-04T00:09:35.959Z,2.83
2019-01-04T00:12:08.432Z,3.70
2019-01-04T00:14:40.866Z,3.00
2019-01-04T00:17:13.703Z,2.90
2019-01-04T00:19:46.333Z,2.80
2019-01-04T00:22:19.007Z,3.20
2019-01-04T00:24:51.499Z,2.60
2019-01-04T00:27:23.948Z,3.17
2019-01-04T00:29:56.571Z,3.10
2019-01-04T00:32:29.159Z,2.90
2019-01-04T00:35:01.808Z,2.87
2019-01-04T00:37:34.284Z,2.43
2019-01-04T00:40:08.014Z,3.00
2019-01-04T00:42:40.456Z,2.87
2019-01-04T00:45:13.114Z,2.80
2019-01-04T00:47:45.718Z,3.10
2019-01-04T00:50:18.200Z,2.50
2019-01-04T00:52:50.953Z,3.10
2019-01-04T00:56:13.371Z,3.13
2019-01-04T00:59:44.349Z,2.53
2019-01-04T01:03:15.701Z,3.00
2019-01-04T01:06:52.777Z,2.80
2019-01-04T01:10:39.162Z,2.50
2019-01-04T01:14:34.083Z,3.10
2019-01-04T01:18:08.650Z,3.07
2019-01-04T01:21:56.138Z,3.20
2019-01-04T01:25:24.883Z,2.43
2019-01-04T01:28:51.723Z,2.70
2019-01-04T01:31:56.754Z,2.77
2019-01-04T01:35:27.847Z,2.70
2019-01-04T01:39:20.001Z,3.90
2019-01-04T01:42:44.759Z,3.83
2019-01-04T01:46:04.878Z,3.03
2019-01-04T01:48:58.605Z,3.83
2019-01-04T01:52:19.540Z,3.87
2019-01-04T01:54:52.047Z,3.33
2019-01-04T01:57:24.593Z,3.07
2019-01-04T01:59:57.030Z,3.20
2019-01-04T02:02:29.682Z,2.70
2019-01-04T02:05:02.314Z,2.70
2019-01-04T02:07:35.061Z,2.80
2019-01-04T02:10:09.096Z,2.60
2019-01-04T02:12:41.701Z,3.50
2019-01-04T02:15:14.245Z,2.60
2019-01-04T02:17:46.811Z,2.60
2019-01-04T02:20:19.559Z,3.07
2019-01-04T02:22:51.939Z,3.27
2019-01-04T02:25:24.441Z,2.53
2019-01-04T02:27:57.016Z,2.67
2019-01-04T02:30:29.845Z,2.47
2019-01-04T02:33:02.362Z,2.60
2019-01-04T02:35:35.212Z,2.70
2019-01-04T02:38:07.795Z,2.80
2019-01-04T02:40:59.064Z,3.20
2019-01-04T02:43:31.847Z,2.50
2019-01-04T02:46:04.472Z,3.33
2019-01-04T02:48:36.815Z,2.50
2019-01-04T02:51:09.419Z,2.73
2019-01-04T02:53:41.938Z,2.83
2019-01-04T02:56:14.502Z,2.90
2019-01-04T02:58:47.108Z,2.53
2019-01-04T03:01:19.529Z,2.93
2019-01-04T03:03:52.105Z,2.77
2019-01-04T03:06:25.090Z,2.50
2019-01-04T03:08:57.707Z,3.00
2019-01-04T03:11:30.275Z,2.57
2019-01-04T03:14:04.398Z,2.53
2019-01-04T03:16:36.898Z,2.60
2019-01-04T03:19:09.335Z,2.73
2019-01-04T03:21:41.846Z,2.40
2019-01-04T03:24:14.728Z,3.07
2019-01-04T03:26:47.392Z,2.83
2019-01-04T03:29:19.837Z,2.50
2019-01-04T03:31:52.319Z,2.87
2019-01-04T03:34:25.185Z,2.60
2019-01-04T03:36:57.593Z,2.80
2019-01-04T03:39:30.063Z,2.70
2019-01-04T03:42:02.544Z,2.77
2019-01-04T03:44:34.932Z,2.47
2019-01-04T03:47:07.379Z,2.50
2019-01-04T03:49:40.095Z,3.27
2019-01-04T03:52:12.806Z,2.90
2019-01-04T03:54:45.671Z,3.13
2019-01-04T03:57:18.405Z,3.17
2019-01-04T03:59:50.930Z,3.10
2019-01-04T04:02:23.419Z,2.43
2019-01-04T04:04:56.078Z,2.60
2019-01-04T04:07:28.966Z,2.67
2019-01-04T04:10:01.509Z,2.87
2019-01-04T04:12:34.374Z,2.47
2019-01-04T04:15:07.278Z,2.60
2019-01-04T04:17:39.859Z,2.90
2019-01-04T04:20:12.346Z,2.30
2019-01-04T04:22:44.993Z,2.67
2019-01-04T04:25:18.374Z,2.80
2019-01-04T04:27:51.045Z,3.60
2019-01-04T04:30:23.556Z,3.07
2019-01-04T04:32:56.286Z,2.60
2019-01-04T04:35:28.707Z,2.73
2019-01-04T04:38:01.242Z,2.40
2019-01-04T04:40:33.662Z,2.53
2019-01-04T04:43:06.244Z,2.23
2019-01-04T04:45:38.774Z,3.07
2019-01-04T04:48:11.450Z,2.27
2019-01-04T04:50:44.150Z,2.80
2019-01-04T04:53:16.756Z,2.60
2019-01-04T04:55:49.333Z,2.83
2019-01-04T04:58:21.970Z,2.93
2019-01-04T05:00:54.804Z,2.80
2019-01-04T05:03:27.353Z,2.73
2019-01-04T05:05:59.906Z,3.20
2019-01-04T05:08:32.621Z,2.63
2019-01-04T05:11:05.120Z,2.83
2019-01-04T05:13:37.440Z,2.47
2019-01-04T05:16:09.936Z,2.23
2019-01-04T05:18:42.621Z,2.23
2019-01-04T05:21:15.197Z,2.90
2019-01-04T05:23:47.636Z,2.20
2019-01-04T05:26:20.049Z,2.83
2019-01-04T05:28:52.552Z,2.37
2019-01-04T05:31:24.933Z,2.93
2019-01-04T05:33:57.306Z,2.40
2019-01-04T05:36:30.020Z,2.93
2019-01-04T05:39:02.824Z,3.50
2019-01-04T05:41:35.600Z,2.80
2019-01-04T05:44:08.261Z,2.63
2019-01-04T05:46:40.694Z,2.50
2019-01-04T05:49:13.438Z,3.17
2019-01-04T05:51:45.936Z,2.40
2019-01-04T05:54:18.514Z,2.53
2019-01-04T05:56:51.322Z,2.57
2019-01-04T05:59:23.935Z,2.10
2019-01-04T06:01:56.364Z,2.20
2019-01-04T06:04:28.838Z,2.40
2019-01-04T06:07:01.498Z,2.53
2019-01-04T06:09:33.864Z,2.57
2019-01-04T06:12:06.482Z,3.17
2019-01-04T06:14:39.102Z,2.47
2019-01-04T06:17:11.545Z,1.90
2019-01-04T06:19:43.957Z,2.07
2019-01-04T06:22:16.438Z,2.60
2019-01-04T06:24:48.809Z,2.37
2019-01-04T06:27:21.229Z,2.40
2019-01-04T06:29:53.667Z,2.40
2019-01-04T06:32:26.553Z,2.77
2019-01-04T06:34:59.098Z,2.50
2019-01-04T06:37:31.657Z,2.90
2019-01-04T06:40:04.462Z,2.20
2019-01-04T06:42:37.095Z,2.23
2019-01-04T06:45:09.794Z,3.23
2019-01-04T06:47:43.709Z,3.23
2019-01-04T06:50:16.911Z,14.30
2019-01-04T06:52:49.608Z,5.30
2019-01-04T06:55:55.694Z,3.00
2019-01-04T06:58:28.566Z,3.47
2019-01-04T07:01:01.002Z,2.60
2019-01-04T07:03:33.535Z,2.50
2019-01-04T07:06:06.463Z,4.20
2019-01-04T07:08:38.958Z,6.73
2019-01-04T07:11:11.375Z,4.10
2019-01-04T07:13:43.919Z,2.77
2019-01-04T07:16:16.493Z,5.33
2019-01-04T07:18:48.919Z,8.37
2019-01-04T07:21:21.796Z,2.90
2019-01-04T07:23:54.411Z,3.47
2019-01-04T07:26:26.802Z,4.53
2019-01-04T07:28:59.475Z,3.67
2019-01-04T07:31:32.256Z,12.53
2019-01-04T07:34:04.887Z,11.23
2019-01-04T07:36:37.208Z,4.23
2019-01-04T07:39:09.889Z,5.07
2019-01-04T07:41:42.359Z,18.03
2019-01-04T07:44:14.804Z,15.00
2019-01-04T07:46:47.112Z,4.20
2019-01-04T07:49:19.754Z,2.20
2019-01-04T07:51:53.639Z,2.60
2019-01-04T07:54:26.251Z,2.37
2019-01-04T07:56:58.565Z,3.03
2019-01-04T07:59:31.101Z,2.93
2019-01-04T08:02:41.898Z,3.00
2019-01-04T08:05:19.940Z,3.53
2019-01-04T08:07:52.341Z,2.80
2019-01-04T08:10:24.978Z,2.90
2019-01-04T08:12:57.554Z,2.93
2019-01-04T08:15:30.030Z,3.20
2019-01-04T08:18:02.607Z,3.03
2019-01-04T08:20:35.080Z,3.30
2019-01-04T08:23:07.333Z,2.90
2019-01-04T08:25:39.982Z,2.87
2019-01-04T08:28:12.423Z,3.60
2019-01-04T08:30:44.822Z,3.23
2019-01-04T08:33:17.326Z,2.87
2019-01-04T08:35:49.625Z,3.27
2019-01-04T08:38:22.098Z,3.50
2019-01-04T08:40:54.392Z,2.97
2019-01-04T08:43:27.060Z,3.40
2019-01-04T08:46:00.012Z,2.73
2019-01-04T08:48:32.566Z,2.90
2019-01-04T08:51:05.045Z,3.03
2019-01-04T08:54:05.183Z,3.07
2019-01-04T08:56:39.524Z,3.07
2019-01-04T08:59:11.965Z,2.63
2019-01-04T09:01:45.325Z,2.60
2019-01-04T09:04:17.955Z,2.80
2019-01-04T09:06:50.770Z,2.63
2019-01-04T09:09:23.486Z,2.67
2019-01-04T09:11:56.172Z,3.17
2019-01-04T09:14:28.826Z,2.60
2019-01-04T09:17:01.232Z,2.40
2019-01-04T09:19:35.094Z,2.10
2019-01-04T09:22:07.379Z,2.30
2019-01-04T09:24:39.863Z,2.20
2019-01-04T09:27:12.355Z,2.50
2019-01-04T09:29:44.775Z,2.33
2019-01-04T09:32:17.749Z,2.57
2019-01-04T09:34:50.208Z,3.57
2019-01-04T09:37:22.706Z,2.87
2019-01-04T09:39:55.549Z,4.80
2019-01-04T09:42:28.214Z,3.27
2019-01-04T09:45:00.386Z,2.47
2019-01-04T09:47:32.770Z,2.50
2019-01-04T09:50:07.754Z,2.13
2019-01-04T09:52:40.124Z,2.20
2019-01-04T09:55:12.604Z,2.37
2019-01-04T09:57:45.136Z,2.83
2019-01-04T10:00:17.641Z,2.20
2019-01-04T10:02:49.994Z,2.23
2019-01-04T10:05:22.478Z,2.20
2019-01-04T10:07:54.907Z,2.27
2019-01-04T10:10:27.363Z,2.27
2019-01-04T10:12:59.842Z,1.80
2019-01-04T10:15:32.353Z,1.80
2019-01-04T10:18:04.681Z,1.80
2019-01-04T10:20:37.138Z,1.10
2019-01-04T10:23:09.604Z,1.67
2019-01-04T10:25:42.051Z,1.60
2019-01-04T10:28:14.686Z,1.60
2019-01-04T10:30:47.175Z,1.30
2019-01-04T10:33:19.972Z,1.50
2019-01-04T10:35:52.582Z,1.60
2019-01-04T10:38:24.998Z,1.43
2019-01-04T10:40:57.702Z,2.10
2019-01-04T10:43:30.056Z,1.70
2019-01-04T10:46:04.021Z,1.77
2019-01-04T10:48:36.600Z,1.73
2019-01-04T10:51:09.049Z,2.13
2019-01-04T10:53:41.500Z,2.40
2019-01-04T10:56:13.874Z,2.40
2019-01-04T10:58:46.315Z,2.17
2019-01-04T11:01:18.667Z,2.03
2019-01-04T11:03:50.997Z,2.00
2019-01-04T11:06:23.672Z,2.10
2019-01-04T11:08:56.254Z,2.13
2019-01-04T11:11:28.770Z,2.90
2019-01-04T11:14:01.286Z,2.30
2019-01-04T11:16:34.059Z,2.30
2019-01-04T11:19:06.338Z,2.30
2019-01-04T11:21:40.245Z,2.30
2019-01-04T11:25:10.102Z,2.20
2019-01-04T11:28:13.620Z,2.80
2019-01-04T11:31:21.836Z,2.43
2019-01-04T11:35:01.527Z,2.40
2019-01-04T11:38:30.045Z,2.40
2019-01-04T11:41:58.848Z,2.10
2019-01-04T11:45:16.133Z,2.40
2019-01-04T11:48:20.899Z,2.00
2019-01-04T11:51:52.243Z,2.57
2019-01-04T11:54:29.283Z,2.60
2019-01-04T11:57:01.488Z,2.60
2019-01-04T11:59:33.866Z,2.87
2019-01-04T12:02:06.758Z,2.43
2019-01-04T12:04:39.192Z,2.77
2019-01-04T12:07:11.480Z,2.90
2019-01-04T12:09:45.389Z,3.80
2019-01-04T12:12:17.874Z,3.93
2019-01-04T12:14:50.765Z,2.70
2019-01-04T12:17:23.289Z,3.60
2019-01-04T12:19:55.754Z,2.47
2019-01-04T12:22:28.224Z,1.93
2019-01-04T12:25:00.573Z,2.43
2019-01-04T12:27:32.820Z,2.90
2019-01-04T12:30:05.437Z,2.60
2019-01-04T12:32:38.783Z,2.70
2019-01-04T12:35:11.209Z,3.03
2019-01-04T12:37:43.804Z,2.23
2019-01-04T12:40:16.204Z,2.53
2019-01-04T12:42:48.793Z,2.97
2019-01-04T12:45:21.379Z,2.60
2019-01-04T12:47:53.947Z,2.57
2019-01-04T12:50:26.613Z,2.63
2019-01-04T12:52:59.114Z,2.33
2019-01-04T12:55:31.569Z,2.40
2019-01-04T12:58:03.996Z,2.40
2019-01-04T13:00:36.352Z,2.80
2019-01-04T13:03:08.671Z,2.30
2019-01-04T13:05:41.355Z,3.00
2019-01-04T13:08:13.868Z,2.83
2019-01-04T13:10:46.441Z,2.37
2019-01-04T13:13:20.655Z,2.60
2019-01-04T13:15:53.155Z,2.20
2019-01-04T13:18:25.806Z,2.33
2019-01-04T13:20:58.305Z,2.53
2019-01-04T13:23:30.667Z,2.20
2019-01-04T13:26:03.131Z,2.47
2019-01-04T13:28:35.684Z,2.03
2019-01-04T13:31:08.279Z,2.00
2019-01-04T13:33:40.713Z,2.17
2019-01-04T13:36:13.250Z,1.97
2019-01-04T13:38:45.819Z,1.80
2019-01-04T13:41:18.158Z,2.20
2019-01-04T13:43:50.686Z,1.80
2019-01-04T13:46:23.193Z,1.60
2019-01-04T13:48:55.470Z,1.80
2019-01-04T13:51:27.721Z,2.10
2019-01-04T13:54:00.086Z,1.90
2019-01-04T13:56:32.426Z,1.80
2019-01-04T13:59:05.151Z,1.60
2019-01-04T14:01:37.522Z,1.50
2019-01-04T14:04:10.251Z,1.90
2019-01-04T14:06:42.875Z,1.40
2019-01-04T14:09:15.374Z,2.07
2019-01-04T14:11:47.821Z,1.97
2019-01-04T14:14:19.962Z,1.90
2019-01-04T14:16:53.369Z,2.10
2019-01-04T14:19:25.776Z,2.20
2019-01-04T14:21:58.525Z,2.30
2019-01-04T14:24:30.881Z,2.40
2019-01-04T14:27:03.208Z,2.30
2019-01-04T14:29:35.546Z,2.60
2019-01-04T14:32:08.016Z,2.50
2019-01-04T14:34:40.468Z,2.30
2019-01-04T14:37:12.893Z,2.70
2019-01-04T14:39:45.496Z,2.93
2019-01-04T14:42:17.902Z,2.47
2019-01-04T14:44:50.269Z,2.90
2019-01-04T14:47:22.655Z,2.70
2019-01-04T14:49:55.001Z,3.33
2019-01-04T14:52:27.443Z,2.80
2019-01-04T14:54:59.933Z,3.03
2019-01-04T14:57:32.246Z,3.30
2019-01-04T15:00:05.685Z,3.47
2019-01-04T15:02:38.165Z,3.47
2019-01-04T15:05:10.710Z,3.10
2019-01-04T15:07:43.190Z,2.83
2019-01-04T15:10:15.840Z,3.13
2019-01-04T15:12:48.436Z,4.33
2019-01-04T15:15:20.733Z,3.73
2019-01-04T15:18:01.582Z,3.70
2019-01-04T15:20:34.677Z,3.50
2019-01-04T15:23:06.989Z,3.83
2019-01-04T15:25:39.437Z,3.27
2019-01-04T15:28:11.814Z,3.33
2019-01-04T15:30:44.294Z,3.50
2019-01-04T15:33:16.567Z,2.53
2019-01-04T15:35:49.037Z,3.00
2019-01-04T15:38:22.757Z,3.23
2019-01-04T15:40:55.351Z,3.67
2019-01-04T15:43:27.914Z,5.17
2019-01-04T15:46:00.680Z,2.60
2019-01-04T15:48:33.079Z,4.60
2019-01-04T15:51:05.482Z,4.00
2019-01-04T15:53:37.894Z,2.73
2019-01-04T15:56:10.290Z,2.27
2019-01-04T15:58:42.809Z,2.37
2019-01-04T16:01:15.171Z,2.50
2019-01-04T16:03:48.004Z,2.60
2019-01-04T16:06:20.547Z,2.80
2019-01-04T16:08:52.918Z,2.23
2019-01-04T16:11:25.251Z,2.17
2019-01-04T16:13:57.651Z,1.90
2019-01-04T16:16:30.098Z,2.10
2019-01-04T16:19:02.498Z,2.23
2019-01-04T16:21:34.804Z,2.47
2019-01-04T16:24:07.463Z,2.37
2019-01-04T16:26:39.848Z,2.70
2019-01-04T16:29:12.361Z,2.40
2019-01-04T16:31:44.648Z,3.40
2019-01-04T16:34:17.069Z,3.37
2019-01-04T16:36:50.067Z,12.03
2019-01-04T16:39:22.700Z,7.17
2019-01-04T16:41:56.684Z,4.53
2019-01-04T16:44:29.426Z,4.30
2019-01-04T16:47:01.851Z,4.23
2019-01-04T16:49:38.034Z,3.80
2019-01-04T16:52:10.540Z,4.17
2019-01-04T16:54:42.835Z,4.73
2019-01-04T16:57:15.430Z,4.40
2019-01-04T16:59:47.943Z,3.90
2019-01-04T17:02:20.257Z,4.30
2019-01-04T17:04:52.930Z,4.70
2019-01-04T17:07:25.694Z,5.07
2019-01-04T17:09:58.393Z,5.13
2019-01-04T17:12:31.080Z,5.93
2019-01-04T17:15:03.747Z,6.00
2019-01-04T17:17:37.101Z,6.33
2019-01-04T17:20:10.145Z,5.73
2019-01-04T17:22:42.567Z,6.07
2019-01-04T17:25:15.270Z,6.13
2019-01-04T17:27:47.931Z,6.20
2019-01-04T17:30:20.499Z,6.33
2019-01-04T17:32:53.036Z,7.07
2019-01-04T17:35:25.601Z,7.37
2019-01-04T17:37:58.316Z,7.93
2019-01-04T17:40:31.066Z,7.50
2019-01-04T17:43:03.587Z,8.63
2019-01-04T17:45:36.294Z,8.27
2019-01-04T17:48:08.946Z,8.57
2019-01-04T17:50:59.879Z,7.80
2019-01-04T17:53:32.546Z,7.67
2019-01-04T17:56:05.461Z,8.07
2019-01-04T17:58:38.107Z,7.70
2019-01-04T18:01:11.361Z,10.17
2019-01-04T18:03:44.041Z,13.07
2019-01-04T18:06:17.327Z,8.50
2019-01-04T18:08:49.859Z,9.90
2019-01-04T18:11:23.021Z,20.17
2019-01-04T18:13:55.597Z,14.90
2019-01-04T18:16:28.212Z,10.93
2019-01-04T18:19:00.730Z,11.13
2019-01-04T18:21:34.786Z,9.40
2019-01-04T18:24:07.209Z,8.70
2019-01-04T18:26:40.186Z,9.33
2019-01-04T18:29:12.808Z,9.40
2019-01-04T18:31:45.365Z,9.07
2019-01-04T18:34:18.058Z,8.63
2019-01-04T18:36:52.324Z,9.87
2019-01-04T18:39:24.956Z,9.17
2019-01-04T18:41:57.549Z,9.03
2019-01-04T18:44:30.424Z,8.73
2019-01-04T18:47:03.178Z,11.27
2019-01-04T18:49:35.879Z,22.60
2019-01-04T18:52:08.519Z,9.33
2019-01-04T18:54:40.817Z,8.07
2019-01-04T18:57:13.242Z,7.50
2019-01-04T18:59:45.765Z,8.23
2019-01-04T19:02:18.475Z,7.67
2019-01-04T19:04:51.283Z,7.47
2019-01-04T19:07:23.857Z,8.30
2019-01-04T19:09:56.332Z,11.00
2019-01-04T19:12:28.894Z,8.60
2019-01-04T19:15:01.586Z,9.53
2019-01-04T19:17:33.981Z,8.40
2019-01-04T19:20:13.291Z,15.33
2019-01-04T19:22:45.831Z,34.80
2019-01-04T19:25:18.367Z,10.47
2019-01-04T19:27:51.087Z,18.33
2019-01-04T19:30:23.704Z,10.43
2019-01-04T19:32:56.366Z,15.87
2019-01-04T19:35:29.156Z,14.50
2019-01-04T19:38:05.772Z,8.77
2019-01-04T19:40:38.453Z,9.30
2019-01-04T19:43:11.037Z,15.53
2019-01-04T19:45:44.045Z,17.23
2019-01-04T19:48:16.688Z,9.77
2019-01-04T19:50:49.222Z,7.10
2019-01-04T19:53:22.190Z,7.10
2019-01-04T19:55:54.826Z,6.93
2019-01-04T19:58:27.639Z,9.53
2019-01-04T20:01:00.933Z,15.47
2019-01-04T20:03:51.824Z,6.53
2019-01-04T20:07:49.953Z,6.07
2019-01-04T20:11:42.937Z,7.13
2019-01-04T20:15:47.203Z,7.23
2019-01-04T20:18:46.020Z,18.03
2019-01-04T20:21:37.591Z,6.70
2019-01-04T20:24:28.883Z,6.10
2019-01-04T20:27:30.093Z,19.53
2019-01-04T20:30:21.529Z,8.50
2019-01-04T20:33:31.022Z,6.73
2019-01-04T20:36:31.262Z,7.80
2019-01-04T20:39:27.746Z,16.30
2019-01-04T20:42:37.856Z,18.70
2019-01-04T20:45:25.837Z,5.97
2019-01-04T20:48:37.161Z,6.40
2019-01-04T20:51:39.852Z,6.23
2019-01-04T20:54:30.374Z,15.47
2019-01-04T20:57:20.276Z,12.40
2019-01-04T21:00:12.202Z,18.90
2019-01-04T21:03:02.230Z,6.80
2019-01-04T21:05:56.613Z,5.60
2019-01-04T21:08:51.377Z,17.77
2019-01-04T21:11:44.131Z,5.80
2019-01-04T21:14:53.494Z,5.80
2019-01-04T21:17:43.448Z,10.67
2019-01-04T21:20:40.433Z,6.97
2019-01-04T21:23:39.864Z,4.73
2019-01-04T21:26:49.846Z,5.23
2019-01-04T21:29:39.790Z,8.77
2019-01-04T21:32:40.319Z,5.73
2019-01-04T21:35:30.707Z,5.40
2019-01-04T21:38:27.649Z,5.90
2019-01-04T21:41:33.861Z,5.37
2019-01-04T21:44:43.120Z,5.43
2019-01-04T21:47:37.525Z,5.20
2019-01-04T21:50:27.960Z,5.93
2019-01-04T21:53:11.718Z,6.87
2019-01-04T21:56:01.810Z,5.67
2019-01-04T21:58:56.215Z,5.00
2019-01-04T22:02:05.764Z,4.97
2019-01-04T22:04:57.094Z,5.77
2019-01-04T22:07:47.054Z,5.40
2019-01-04T22:10:41.210Z,4.83
2019-01-04T22:13:31.441Z,26.43
2019-01-04T22:16:21.568Z,4.70
2019-01-04T22:19:18.495Z,4.73
2019-01-04T22:22:08.466Z,5.63
2019-01-04T22:24:58.694Z,5.00
2019-01-04T22:27:57.162Z,5.60
2019-01-04T22:30:39.906Z,6.20
2019-01-04T22:33:31.399Z,5.50
2019-01-04T22:36:21.240Z,6.10
2019-01-04T22:39:27.261Z,5.13
2019-01-04T22:42:25.077Z,5.53
2019-01-04T22:45:25.245Z,12.67
2019-01-04T22:48:22.441Z,7.63
2019-01-04T22:51:12.496Z,6.60
2019-01-04T22:54:02.303Z,5.90
2019-01-04T22:57:13.469Z,7.20
2019-01-04T23:00:15.253Z,6.90
2019-01-04T23:03:08.872Z,6.57
2019-01-04T23:06:18.392Z,6.57
2019-01-04T23:09:21.487Z,6.77
2019-01-04T23:12:27.851Z,6.70
2019-01-04T23:15:28.481Z,6.67
2019-01-04T23:18:25.439Z,7.30
2019-01-04T23:21:38.260Z,7.30
2019-01-04T23:24:44.693Z,6.67
2019-01-04T23:27:34.974Z,6.03
2019-01-04T23:30:38.696Z,11.73
2019-01-04T23:33:28.565Z,7.93
2019-01-04T23:36:18.585Z,7.37
2019-01-04T23:39:19.030Z,8.00
2019-01-04T23:42:20.541Z,7.53
2019-01-04T23:45:10.540Z,6.77
2019-01-04T23:48:03.364Z,6.77
2019-01-04T23:50:57.914Z,6.60
2019-01-04T23:53:55.260Z,7.40
2019-01-04T23:56:45.485Z,7.20
2019-01-04T23:59:35.431Z,7.43
